Time;durP1;ratioP1;P1;durP2;ratioP2;P2;SDS_P1;SDS_P2;PMS_P1;PMS_P2;Temp;Humidity;BMP_temperature;BMP_pressure;BME280_temperature;BME280_humidity;BME280_pressure;Samples;Min_cycle;Max_cycle;Signal;HPM_P1;HPM_P2
2021/12/02 00:00:12;;;;;;;;;;;;;;;25.85;57.29;96420.79;600328;236;67290;-66
2021/12/02 00:02:41;;;;;;;;;;;;;;;25.84;56.93;96420.00;600408;236;37788;-66
2021/12/02 00:05:09;;;;;;;;;;;;;;;25.83;60.37;96431.05;600327;236;62879;-66
2021/12/02 00:07:36;;;;;;;;;;;;;;;25.82;57.10;96437.55;600319;236;67270;-66
2021/12/02 00:10:05;;;;;;;;;;;;;;;25.82;57.05;96443.72;600326;236;67072;-66
2021/12/02 00:12:33;;;;;;;;;;;;;;;25.81;61.54;96438.63;600297;236;65050;-66
2021/12/02 00:15:06;;;;;;;;;;;;;;;25.80;57.85;96435.16;600312;236;64947;-66
2021/12/02 00:17:34;;;;;;;;;;;;;;;25.79;57.51;96438.97;600213;235;64934;-66
2021/12/02 00:22:49;;;;;;;;;;;;;;;25.77;60.80;96437.70;600306;236;64941;-66
2021/12/02 00:25:17;;;;;;;;;;;;;;;25.77;60.48;96437.70;591218;236;64855;-65
2021/12/02 00:27:45;;;;;;;;;;;;;;;25.74;61.48;96444.50;600283;236;65176;-65
2021/12/02 00:30:14;;;;;;;;;;;;;;;25.73;59.48;96442.92;600324;236;64604;-66
2021/12/02 00:32:43;;;;;;;;;;;;;;;25.74;60.09;96433.73;600311;236;64650;-66
2021/12/02 00:35:11;;;;;;;;;;;;;;;25.73;60.26;96437.55;600296;236;65160;-66
2021/12/02 00:37:39;;;;;;;;;;;;;;;25.75;59.47;96439.91;600321;236;67240;-66
2021/12/02 00:40:07;;;;;;;;;;;;;;;25.72;61.95;96435.16;600238;236;64995;-66
2021/12/02 00:42:36;;;;;;;;;;;;;;;25.70;59.75;96432.80;600339;236;65068;-65
2021/12/02 00:45:03;;;;;;;;;;;;;;;25.69;61.63;96434.67;600279;236;64697;-66
2021/12/02 00:47:32;;;;;;;;;;;;;;;25.70;60.62;96430.11;600273;236;67041;-66
2021/12/02 00:49:59;;;;;;;;;;;;;;;25.67;61.31;96426.14;600299;236;65037;-66
2021/12/02 00:52:29;;;;;;;;;;;;;;;25.67;62.56;96420.77;611389;231;64831;-66
2021/12/02 00:54:56;;;;;;;;;;;;;;;25.66;58.58;96423.75;612277;231;67051;-66
2021/12/02 00:57:24;;;;;;;;;;;;;;;25.67;61.58;96422.64;612335;231;65029;-66
2021/12/02 00:59:53;;;;;;;;;;;;;;;25.66;60.53;96413.78;612288;231;64769;-66
2021/12/02 01:02:21;;;;;;;;;;;;;;;25.66;61.47;96404.92;612263;231;64830;-65
2021/12/02 01:04:48;;;;;;;;;;;;;;;25.63;60.14;96413.63;612271;231;65045;-60
2021/12/02 01:07:17;;;;;;;;;;;;;;;25.63;61.03;96419.80;612265;231;67497;-59
2021/12/02 01:09:45;;;;;;;;;;;;;;;25.64;60.58;96412.51;612294;231;65043;-59
2021/12/02 01:12:13;;;;;;;;;;;;;;;25.63;60.47;96405.55;612290;231;63833;-59
2021/12/02 01:14:40;;;;;;;;;;;;;;;25.61;60.23;96418.52;612289;231;64888;-59
2021/12/02 01:17:08;;;;;;;;;;;;;;;25.63;61.48;96416.31;612307;231;64935;-59
2021/12/02 01:19:36;;;;;;;;;;;;;;;25.63;59.07;96416.31;612313;231;62705;-59
2021/12/02 01:22:04;;;;;;;;;;;;;;;25.58;61.05;96413.78;612391;231;66956;-60
2021/12/02 01:24:33;;;;;;;;;;;;;;;25.57;61.90;96402.23;612308;231;66806;-59
2021/12/02 01:27:02;;;;;;;;;;;;;;;25.57;59.93;96412.20;612336;231;62869;-59
2021/12/02 01:29:29;;;;;;;;;;;;;;;25.59;61.99;96409.97;612291;231;66807;-59
2021/12/02 01:31:58;;;;;;;;;;;;;;;25.56;62.04;96411.39;612361;231;66856;-59
2021/12/02 01:34:27;;;;;;;;;;;;;;;25.56;62.70;96415.98;612364;231;65126;-59
2021/12/02 01:36:55;;;;;;;;;;;;;;;25.55;57.91;96414.41;612395;231;66886;-59
2021/12/02 01:39:23;;;;;;;;;;;;;;;25.55;61.36;96414.41;612283;231;64764;-59
2021/12/02 01:41:52;;;;;;;;;;;;;;;25.54;62.63;96412.84;612333;231;65022;-59
2021/12/02 01:44:20;;;;;;;;;;;;;;;25.53;57.85;96403.95;612270;231;66885;-60
2021/12/02 01:46:50;;;;;;;;;;;;;;;25.57;56.46;96409.52;612361;231;64728;-60
2021/12/02 01:49:19;;;;;;;;;;;;;;;25.54;58.20;96400.17;612302;231;65992;-60
2021/12/02 01:51:48;;;;;;;;;;;;;;;25.54;57.66;96402.08;610907;231;67239;-60
2021/12/02 01:54:17;;;;;;;;;;;;;;;25.55;58.08;96404.44;610220;232;67311;-60
2021/12/02 01:56:46;;;;;;;;;;;;;;;25.54;55.83;96399.39;610107;232;65096;-60
2021/12/02 01:59:15;;;;;;;;;;;;;;;25.50;62.20;96391.13;610212;232;67207;-60
2021/12/02 02:01:44;;;;;;;;;;;;;;;25.49;61.87;96396.84;610004;232;67014;-60
2021/12/02 02:04:12;;;;;;;;;;;;;;;25.46;62.63;96395.58;610224;232;62833;-59
2021/12/02 02:06:41;;;;;;;;;;;;;;;25.49;60.28;96399.53;610236;232;65002;-59
2021/12/02 02:09:09;;;;;;;;;;;;;;;25.46;59.20;96399.05;610233;232;64783;-60
2021/12/02 02:11:36;;;;;;;;;;;;;;;25.46;61.03;96399.05;610284;232;65043;-60
2021/12/02 02:14:07;;;;;;;;;;;;;;;25.44;61.38;96401.25;610264;232;66902;-60
2021/12/02 02:16:33;;;;;;;;;;;;;;;25.45;63.17;96412.80;610178;232;67105;-59
2021/12/02 02:19:01;;;;;;;;;;;;;;;25.41;58.72;96412.65;610204;232;62830;-65
2021/12/02 02:21:31;;;;;;;;;;;;;;;25.42;60.89;96399.98;610236;232;67438;-66
2021/12/02 02:24:00;;;;;;;;;;;;;;;25.44;59.57;96403.16;610224;232;64934;-65
2021/12/02 02:26:31;;;;;;;;;;;;;;;25.41;62.25;96414.55;610237;232;62549;-65
2021/12/02 02:28:57;;;;;;;;;;;;;;;25.39;58.12;96414.85;610202;232;65048;-60
2021/12/02 02:31:26;;;;;;;;;;;;;;;25.37;61.44;96410.89;610237;232;67139;-60
2021/12/02 02:33:54;;;;;;;;;;;;;;;25.40;58.21;96411.08;610220;232;65814;-59
2021/12/02 02:36:23;;;;;;;;;;;;;;;25.36;63.40;96399.34;610259;232;67299;-60
2021/12/02 02:38:58;;;;;;;;;;;;;;;25.35;57.28;96397.77;610215;232;64685;-59
2021/12/02 02:41:27;;;;;;;;;;;;;;;25.35;64.78;96403.15;610230;232;64922;-59
2021/12/02 02:43:57;;;;;;;;;;;;;;;25.33;63.61;96402.66;610198;232;67286;-59
2021/12/02 02:46:26;;;;;;;;;;;;;;;25.32;63.52;96406.47;610210;232;64995;-60
2021/12/02 02:48:54;;;;;;;;;;;;;;;25.30;62.37;96419.44;610202;232;64908;-60
2021/12/02 02:51:21;;;;;;;;;;;;;;;25.31;62.12;96409.46;610147;232;68014;-59
2021/12/02 02:53:51;;;;;;;;;;;;;;;25.31;63.28;96412.94;610293;232;67511;-60
2021/12/02 02:56:21;;;;;;;;;;;;;;;25.31;61.48;96415.62;610211;232;65046;-59
2021/12/02 02:59:04;;;;;;;;;;;;;;;25.32;59.94;96413.72;610235;232;67239;-59
2021/12/02 03:01:52;;;;;;;;;;;;;;;25.28;58.30;96405.50;610065;232;64675;-60
2021/12/02 03:04:25;;;;;;;;;;;;;;;25.28;62.41;96410.87;610102;232;65037;-59
2021/12/02 03:11:54;;;;;;;;;;;;;;;25.24;63.67;96399.18;610243;232;63083;-60
2021/12/02 03:14:47;;;;;;;;;;;;;;;25.22;63.30;96406.76;610151;232;65060;-60
2021/12/02 03:16:59;;;;;;;;;;;;;;;25.23;63.60;96402.95;609389;232;66944;-60
2021/12/02 03:19:28;;;;;;;;;;;;;;;25.22;62.33;96414.83;610230;232;64771;-60
2021/12/02 03:21:56;;;;;;;;;;;;;;;25.21;60.17;96410.56;610240;232;67066;-60
2021/12/02 03:24:24;;;;;;;;;;;;;;;25.21;61.77;96415.94;610259;232;66901;-60
2021/12/02 03:26:52;;;;;;;;;;;;;;;25.21;58.07;96415.94;610212;232;65039;-60
2021/12/02 03:29:19;;;;;;;;;;;;;;;25.18;61.31;96408.48;610243;232;64577;-66
2021/12/02 03:31:47;;;;;;;;;;;;;;;25.20;60.82;96414.34;610213;232;64810;-66
2021/12/02 03:34:15;;;;;;;;;;;;;;;25.21;61.35;96415.94;610209;232;63834;-66
2021/12/02 03:36:43;;;;;;;;;;;;;;;25.19;58.33;96396.63;610272;232;65259;-66
2021/12/02 03:39:11;;;;;;;;;;;;;;;25.16;65.10;96381.91;610178;232;64857;-66
2021/12/02 03:41:40;;;;;;;;;;;;;;;25.15;66.06;96390.28;610224;232;63022;-66
2021/12/02 03:44:08;;;;;;;;;;;;;;;25.14;62.70;96388.68;610207;232;67279;-66
2021/12/02 03:46:35;;;;;;;;;;;;;;;25.12;62.11;96393.57;610218;232;67052;-66
2021/12/02 03:49:04;;;;;;;;;;;;;;;25.13;66.04;96398.64;610257;232;65090;-66
2021/12/02 03:51:31;;;;;;;;;;;;;;;25.10;62.45;96409.22;610254;232;67217;-66
2021/12/02 03:53:59;;;;;;;;;;;;;;;25.08;64.08;96406.85;610232;232;64841;-66
2021/12/02 03:56:27;;;;;;;;;;;;;;;25.08;64.26;96417.61;610227;232;65028;-66
2021/12/02 03:58:55;;;;;;;;;;;;;;;25.08;64.92;96411.44;610198;232;67076;-66
2021/12/02 04:01:24;;;;;;;;;;;;;;;25.06;63.33;96427.88;610225;232;67231;-59
2021/12/02 04:03:52;;;;;;;;;;;;;;;25.05;62.81;96417.45;610274;232;65174;-60
2021/12/02 04:06:20;;;;;;;;;;;;;;;25.06;64.46;96419.02;610153;232;67171;-60
2021/12/02 04:08:54;;;;;;;;;;;;;;;25.06;64.68;96424.39;610230;232;64779;-60
2021/12/02 04:11:38;;;;;;;;;;;;;;;25.05;65.93;96433.58;610162;232;64883;-59
2021/12/02 04:16:37;;;;;;;;;;;;;;;25.03;65.25;96425.81;610227;232;64659;-66
2021/12/02 04:19:05;;;;;;;;;;;;;;;25.00;66.12;96419.16;610257;232;65107;-66
2021/12/02 04:21:33;;;;;;;;;;;;;;;25.00;66.53;96413.00;610116;232;64861;-66
2021/12/02 04:24:01;;;;;;;;;;;;;;;25.00;66.01;96415.69;610186;232;65367;-66
2021/12/02 04:26:29;;;;;;;;;;;;;;;25.00;65.58;96404.93;610221;232;65958;-66
2021/12/02 04:28:56;;;;;;;;;;;;;;;25.00;64.72;96411.09;610225;232;67038;-66
2021/12/02 04:31:24;;;;;;;;;;;;;;;25.00;63.83;96402.24;610215;232;65816;-60
2021/12/02 04:33:51;;;;;;;;;;;;;;;24.99;66.54;96396.08;610213;232;62969;-59
2021/12/02 04:36:19;;;;;;;;;;;;;;;24.96;63.22;96394.02;610228;232;66981;-60
2021/12/02 04:38:46;;;;;;;;;;;;;;;24.96;60.87;96388.64;610204;232;66815;-60
2021/12/02 04:41:16;;;;;;;;;;;;;;;24.97;60.55;96387.53;610226;232;64847;-60
2021/12/02 04:43:43;;;;;;;;;;;;;;;24.99;62.19;96384.52;610227;232;66883;-60
2021/12/02 04:46:11;;;;;;;;;;;;;;;24.98;64.96;96372.19;610160;232;66856;-60
2021/12/02 04:48:40;;;;;;;;;;;;;;;24.96;65.29;96359.08;610215;232;65009;-60
2021/12/02 04:51:07;;;;;;;;;;;;;;;24.94;64.54;96363.17;611000;231;67408;-60
2021/12/02 04:53:35;;;;;;;;;;;;;;;24.93;65.99;96353.52;612287;231;64806;-60
2021/12/02 04:56:03;;;;;;;;;;;;;;;24.91;66.48;96353.84;612294;231;63815;-66
2021/12/02 04:58:30;;;;;;;;;;;;;;;24.91;63.73;96358.40;612331;231;65935;-66
2021/12/02 05:00:59;;;;;;;;;;;;;;;24.91;64.19;96348.47;612322;231;66599;-66
2021/12/02 05:03:27;;;;;;;;;;;;;;;24.93;62.93;96351.61;612328;231;65030;-66
2021/12/02 05:05:54;;;;;;;;;;;;;;;24.91;63.60;96351.16;612317;231;64927;-66
2021/12/02 05:08:23;;;;;;;;;;;;;;;24.91;64.90;96345.77;612150;231;46504;-66
2021/12/02 05:10:51;;;;;;;;;;;;;;;24.89;63.68;96339.12;612349;231;64878;-66
2021/12/02 05:13:18;;;;;;;;;;;;;;;24.88;63.20;96322.22;612275;231;67227;-66
2021/12/02 05:15:46;;;;;;;;;;;;;;;24.84;63.09;96321.24;612301;231;65130;-66
2021/12/02 05:18:13;;;;;;;;;;;;;;;24.85;64.32;96317.44;612309;231;62767;-66
2021/12/02 05:20:41;;;;;;;;;;;;;;;24.86;65.27;96321.73;612314;231;67238;-66
2021/12/02 05:23:08;;;;;;;;;;;;;;;24.86;64.51;96327.11;606351;231;67045;-66
2021/12/02 05:25:36;;;;;;;;;;;;;;;24.84;60.80;96331.20;612265;231;65005;-66
2021/12/02 05:28:03;;;;;;;;;;;;;;;24.84;64.23;96323.14;612321;231;67163;-67
2021/12/02 05:30:31;;;;;;;;;;;;;;;24.82;61.28;96331.50;612355;231;66512;-65
2021/12/02 05:32:58;;;;;;;;;;;;;;;24.82;64.75;96334.19;612340;231;65118;-66
2021/12/02 05:35:26;;;;;;;;;;;;;;;24.84;65.63;96336.58;612370;231;66756;-66
2021/12/02 05:37:53;;;;;;;;;;;;;;;24.81;63.57;96327.25;612249;229;66887;-66
2021/12/02 05:40:21;;;;;;;;;;;;;;;24.80;63.62;96317.61;612377;231;65179;-66
2021/12/02 05:42:49;;;;;;;;;;;;;;;24.79;62.79;96324.07;612329;231;66994;-66
2021/12/02 05:45:16;;;;;;;;;;;;;;;24.80;63.46;96325.67;612281;231;66897;-65
2021/12/02 05:47:43;;;;;;;;;;;;;;;24.81;65.02;96325.34;612350;231;64855;-66
2021/12/02 05:50:11;;;;;;;;;;;;;;;24.78;62.32;96317.91;612330;231;66845;-66
2021/12/02 05:52:38;;;;;;;;;;;;;;;24.79;63.87;96321.38;612245;231;67114;-66
2021/12/02 05:55:06;;;;;;;;;;;;;;;24.79;64.78;96321.38;612307;231;64987;-66
2021/12/02 05:57:34;;;;;;;;;;;;;;;24.78;62.83;96317.13;612260;231;66909;-66
2021/12/02 06:00:02;;;;;;;;;;;;;;;24.79;63.81;96318.70;612284;231;66820;-66
2021/12/02 06:02:31;;;;;;;;;;;;;;;24.76;64.06;96319.33;612034;231;43796;-68
2021/12/02 06:04:58;;;;;;;;;;;;;;;24.73;65.06;96318.05;612257;231;67511;-65
2021/12/02 06:07:26;;;;;;;;;;;;;;;24.75;65.46;96320.44;612261;231;67010;-66
2021/12/02 06:09:54;;;;;;;;;;;;;;;24.75;64.39;96326.60;612326;231;65074;-66
2021/12/02 06:12:21;;;;;;;;;;;;;;;24.76;66.84;96322.02;612310;231;67085;-66
2021/12/02 06:14:50;;;;;;;;;;;;;;;24.77;67.11;96328.95;612347;231;66809;-66
2021/12/02 06:17:19;;;;;;;;;;;;;;;24.76;65.87;96335.45;612153;231;65610;-66
2021/12/02 06:19:46;;;;;;;;;;;;;;;24.77;66.99;96337.84;612313;231;67077;-65
2021/12/02 06:22:14;;;;;;;;;;;;;;;24.76;66.01;96332.77;612281;231;66866;-66
2021/12/02 06:25:05;;;;;;;;;;;;;;;24.77;66.99;96328.95;612306;231;64862;-66
2021/12/02 06:27:14;;;;;;;;;;;;;;;24.77;65.53;96326.27;611213;231;67001;-66
2021/12/02 06:29:42;;;;;;;;;;;;;;;24.78;66.07;96322.50;612296;231;64851;-66
2021/12/02 06:32:09;;;;;;;;;;;;;;;24.78;68.67;96327.87;612279;231;65113;-66
2021/12/02 06:34:37;;;;;;;;;;;;;;;24.77;63.86;96335.15;612287;231;64685;-66
2021/12/02 06:37:04;;;;;;;;;;;;;;;24.80;64.46;96328.36;612285;231;64721;-66
2021/12/02 06:39:32;;;;;;;;;;;;;;;24.79;65.85;96324.86;612307;231;65254;-66
2021/12/02 06:41:59;;;;;;;;;;;;;;;24.77;65.19;96321.72;612324;231;64830;-66
2021/12/02 06:44:28;;;;;;;;;;;;;;;24.78;65.75;96323.28;612319;231;64580;-65
2021/12/02 06:46:56;;;;;;;;;;;;;;;24.77;64.63;96326.27;612270;231;65108;-66
2021/12/02 06:49:24;;;;;;;;;;;;;;;24.79;66.36;96322.17;612245;231;64995;-66
2021/12/02 06:51:51;;;;;;;;;;;;;;;24.79;65.36;96313.32;612222;231;67239;-66
2021/12/02 06:54:20;;;;;;;;;;;;;;;24.80;65.12;96314.92;612354;231;65111;-66
2021/12/02 06:56:48;;;;;;;;;;;;;;;24.83;67.71;96316.98;612177;229;67021;-59
2021/12/02 06:59:15;;;;;;;;;;;;;;;24.80;66.00;96310.34;612265;231;66909;-59
2021/12/02 07:01:43;;;;;;;;;;;;;;;24.85;65.63;96303.22;612308;231;64892;-60
2021/12/02 07:04:11;;;;;;;;;;;;;;;24.83;66.83;96303.55;611849;229;67230;-62
2021/12/02 07:06:40;;;;;;;;;;;;;;;24.83;67.25;96300.86;619645;229;64882;-60
2021/12/02 07:09:07;;;;;;;;;;;;;;;24.85;67.60;96306.69;619213;229;65043;-60
2021/12/02 07:11:38;;;;;;;;;;;;;;;24.84;66.39;96310.49;619043;229;66768;-60
2021/12/02 07:14:13;;;;;;;;;;;;;;;24.87;67.72;96304.48;619166;229;67917;-60
2021/12/02 07:16:36;;;;;;;;;;;;;;;24.87;67.21;96303.70;618805;229;65101;-59
2021/12/02 07:19:05;;;;;;;;;;;;;;;24.89;66.55;96302.28;619241;229;67267;-61
2021/12/02 07:21:36;;;;;;;;;;;;;;;24.91;67.45;96307.33;619235;229;67011;-62
2021/12/02 07:24:02;;;;;;;;;;;;;;;24.93;67.71;96307.81;619159;229;65116;-62
2021/12/02 07:26:29;;;;;;;;;;;;;;;24.93;67.94;96303.23;618175;229;67124;-59
2021/12/02 07:28:57;;;;;;;;;;;;;;;24.95;67.18;96302.92;619128;229;66894;-59
2021/12/02 07:31:26;;;;;;;;;;;;;;;24.95;67.89;96311.78;619179;229;65116;-60
2021/12/02 07:33:56;;;;;;;;;;;;;;;24.97;68.41;96300.73;619320;229;48484;-60
2021/12/02 07:36:25;;;;;;;;;;;;;;;24.98;68.49;96303.08;619211;229;67110;-67
2021/12/02 07:38:52;;;;;;;;;;;;;;;24.99;68.01;96299.31;619085;229;64996;-64
2021/12/02 07:41:21;;;;;;;;;;;;;;;25.00;67.69;96292.81;619136;229;67169;-66
2021/12/02 07:43:48;;;;;;;;;;;;;;;25.00;66.45;96295.50;619292;229;64875;-65
2021/12/02 07:46:16;;;;;;;;;;;;;;;25.01;68.14;96297.08;619165;229;64884;-67
2021/12/02 07:48:43;;;;;;;;;;;;;;;25.01;67.27;96298.98;619178;229;67199;-67
2021/12/02 07:51:13;;;;;;;;;;;;;;;25.03;66.88;96299.47;618206;229;66966;-65
2021/12/02 07:53:41;;;;;;;;;;;;;;;25.05;66.48;96299.16;617071;230;65080;-66
2021/12/02 07:56:10;;;;;;;;;;;;;;;25.05;65.92;96293.78;617141;230;67223;-65
2021/12/02 07:58:39;;;;;;;;;;;;;;;25.07;65.32;96284.27;617140;230;64695;-64
2021/12/02 08:01:07;;;;;;;;;;;;;;;25.09;66.57;96286.66;617034;230;62968;-63
2021/12/02 08:03:35;;;;;;;;;;;;;;;25.11;66.65;96276.39;617022;230;67054;-61
2021/12/02 08:06:03;;;;;;;;;;;;;;;25.11;62.25;96281.77;617059;230;67347;-62
2021/12/02 08:08:30;;;;;;;;;;;;;;;25.10;62.29;96269.41;617072;230;65215;-60
2021/12/02 08:10:58;;;;;;;;;;;;;;;25.14;64.74;96265.00;617089;230;67253;-60
2021/12/02 08:13:30;;;;;;;;;;;;;;;25.15;65.46;96266.60;617063;230;64827;-62
2021/12/02 08:15:54;;;;;;;;;;;;;;;25.14;65.46;96259.63;616882;230;62904;-62
2021/12/02 08:18:22;;;;;;;;;;;;;;;25.17;61.90;96259.02;617066;230;65871;-62
2021/12/02 08:20:49;;;;;;;;;;;;;;;25.23;58.95;96266.59;617079;230;64902;-62
2021/12/02 08:23:20;;;;;;;;;;;;;;;25.25;59.00;96258.23;616354;230;62756;-61
2021/12/02 08:25:49;;;;;;;;;;;;;;;25.27;61.14;96261.39;617130;230;66772;-62
2021/12/02 08:28:16;;;;;;;;;;;;;;;25.28;61.81;96260.28;615809;230;66918;-61
2021/12/02 08:30:44;;;;;;;;;;;;;;;25.30;59.83;96258.07;617040;230;65046;-62
2021/12/02 08:33:14;;;;;;;;;;;;;;;25.30;60.39;96257.28;617121;230;67339;-62
2021/12/02 08:35:41;;;;;;;;;;;;;;;25.31;61.36;96264.23;617130;230;64858;-62
2021/12/02 08:38:11;;;;;;;;;;;;;;;25.30;58.66;96260.76;617071;230;65034;-63
2021/12/02 08:40:39;;;;;;;;;;;;;;;25.33;58.52;96251.27;617146;230;67257;-63
2021/12/02 08:43:11;;;;;;;;;;;;;;;25.33;59.54;96260.13;617075;230;66956;-64
2021/12/02 08:45:39;;;;;;;;;;;;;;;25.35;58.78;96252.53;617075;230;62928;-62
2021/12/02 08:48:07;;;;;;;;;;;;;;;25.36;57.97;96254.11;617152;230;67093;-62
2021/12/02 08:50:36;;;;;;;;;;;;;;;25.38;56.55;96241.14;617170;229;64950;-61
2021/12/02 08:53:04;;;;;;;;;;;;;;;25.39;57.97;96244.61;617921;229;63052;-61
2021/12/02 08:55:32;;;;;;;;;;;;;;;25.38;57.95;96234.97;617918;229;64871;-62
2021/12/02 08:58:00;;;;;;;;;;;;;;;25.39;58.95;96241.92;617858;229;64841;-61
2021/12/02 09:00:33;;;;;;;;;;;;;;;25.41;57.09;96242.41;617746;229;65099;-61
2021/12/02 09:02:58;;;;;;;;;;;;;;;25.39;57.93;96233.86;617697;229;67306;-61
2021/12/02 09:05:26;;;;;;;;;;;;;;;25.41;58.84;96231.64;617926;229;67059;-63
2021/12/02 09:07:54;;;;;;;;;;;;;;;25.40;57.38;96222.79;617963;229;63102;-61
2021/12/02 09:10:21;;;;;;;;;;;;;;;25.42;56.83;96223.23;617890;229;64887;-61
2021/12/02 09:12:50;;;;;;;;;;;;;;;25.42;57.78;96215.17;617912;229;65817;-62
2021/12/02 09:15:18;;;;;;;;;;;;;;;25.42;60.28;96217.86;617981;229;65163;-61
2021/12/02 09:17:46;;;;;;;;;;;;;;;25.42;56.66;96212.48;617964;229;67010;-61
2021/12/02 09:20:15;;;;;;;;;;;;;;;25.44;58.41;96217.55;617864;229;67418;-61
2021/12/02 09:22:43;;;;;;;;;;;;;;;25.42;59.36;96204.41;617944;227;65131;-62
2021/12/02 09:25:12;;;;;;;;;;;;;;;25.42;59.66;96223.23;617918;229;67032;-66
2021/12/02 09:27:39;;;;;;;;;;;;;;;25.41;57.86;96221.67;617959;229;67123;-67
2021/12/02 09:30:09;;;;;;;;;;;;;;;25.41;59.56;96200.16;617914;229;64921;-66
2021/12/02 09:32:37;;;;;;;;;;;;;;;25.40;60.49;96198.58;617840;229;67260;-67
2021/12/02 09:35:05;;;;;;;;;;;;;;;25.38;58.10;96190.03;617947;229;66821;-66
2021/12/02 09:37:33;;;;;;;;;;;;;;;25.38;59.42;96184.66;617971;229;65043;-67
2021/12/02 09:40:02;;;;;;;;;;;;;;;25.37;59.01;96180.39;617985;227;64455;-68
2021/12/02 09:42:30;;;;;;;;;;;;;;;25.35;60.23;96174.54;618017;229;64293;-67
2021/12/02 09:45:02;;;;;;;;;;;;;;;25.35;60.02;96176.45;617913;229;65060;-66
2021/12/02 09:47:31;;;;;;;;;;;;;;;25.35;59.75;96157.62;617931;229;67409;-67
2021/12/02 09:50:05;;;;;;;;;;;;;;;25.35;59.69;96163.78;606149;229;66523;-66
2021/12/02 09:52:34;;;;;;;;;;;;;;;25.34;59.25;96164.88;615944;229;65160;-65
2021/12/02 09:55:04;;;;;;;;;;;;;;;25.34;58.82;96161.40;615898;230;66709;-67
2021/12/02 09:57:35;;;;;;;;;;;;;;;25.33;60.96;96155.23;615835;230;66840;-62
2021/12/02 09:59:57;;;;;;;;;;;;;;;25.31;61.93;96149.38;615748;230;64988;-62
2021/12/02 10:02:25;;;;;;;;;;;;;;;25.31;56.45;96144.00;615894;230;67951;-59
2021/12/02 10:04:59;;;;;;;;;;;;;;;25.44;54.52;96139.55;615939;230;64925;-72
2021/12/02 10:07:35;;;;;;;;;;;;;;;25.47;54.36;96144.28;615942;230;64851;-66
2021/12/02 10:10:12;;;;;;;;;;;;;;;25.46;56.77;96138.13;615848;230;67086;-67
2021/12/02 10:12:38;;;;;;;;;;;;;;;25.45;57.04;96130.36;615848;230;64894;-66
2021/12/02 10:15:13;;;;;;;;;;;;;;;25.45;59.73;96133.86;615971;230;65014;-67
2021/12/02 10:17:42;;;;;;;;;;;;;;;25.44;60.30;96124.20;616024;229;67229;-68
2021/12/02 10:23:35;;;;;;;;;;;;;;;25.43;61.30;96125.31;618726;229;65121;-67
2021/12/02 10:25:37;;;;;;;;;;;;;;;25.43;61.45;96121.84;616067;229;67114;-59
2021/12/02 10:28:06;;;;;;;;;;;;;;;25.43;64.05;96117.25;618877;229;66635;-60
2021/12/02 10:30:34;;;;;;;;;;;;;;;25.44;64.10;96120.72;618657;229;71842;-60
2021/12/02 10:33:02;;;;;;;;;;;;;;;25.43;62.29;96122.63;618810;229;67230;-60
2021/12/02 10:35:40;;;;;;;;;;;;;;;25.42;62.36;96115.65;618793;229;65324;-60
2021/12/02 10:38:07;;;;;;;;;;;;;;;25.44;62.27;96118.03;618724;229;64984;-60
2021/12/02 10:40:36;;;;;;;;;;;;;;;25.44;61.79;96116.13;618866;229;67181;-60
2021/12/02 10:43:09;;;;;;;;;;;;;;;25.44;60.62;96112.66;618855;229;66893;-60
2021/12/02 10:45:38;;;;;;;;;;;;;;;25.45;64.35;96115.03;618754;229;63816;-65
2021/12/02 10:48:05;;;;;;;;;;;;;;;25.45;64.11;96115.03;618790;229;67154;-65
2021/12/02 10:50:34;;;;;;;;;;;;;;;25.44;64.41;96107.27;618771;229;66902;-66
2021/12/02 10:53:05;;;;;;;;;;;;;;;25.44;63.81;96105.37;619553;229;65108;-65
2021/12/02 10:55:33;;;;;;;;;;;;;;;25.47;63.77;96099.34;619590;229;64474;-66
2021/12/02 10:58:02;;;;;;;;;;;;;;;25.47;62.22;96099.34;619576;229;67089;-68
2021/12/02 11:00:40;;;;;;;;;;;;;;;25.44;62.09;96099.20;619552;229;65031;-65
2021/12/02 11:03:12;;;;;;;;;;;;;;;25.43;62.64;96098.42;619257;229;67251;-65
2021/12/02 11:05:42;;;;;;;;;;;;;;;25.44;63.08;96091.13;619570;229;64681;-65
2021/12/02 11:08:12;;;;;;;;;;;;;;;25.43;63.05;96087.66;619253;229;65064;-66
2021/12/02 11:10:44;;;;;;;;;;;;;;;25.44;64.44;96091.92;619604;229;67177;-65
2021/12/02 11:13:13;;;;;;;;;;;;;;;25.43;63.85;96095.73;619551;229;64703;-66
2021/12/02 11:15:40;;;;;;;;;;;;;;;25.43;63.73;96089.56;619387;229;63656;-66
2021/12/02 11:18:09;;;;;;;;;;;;;;;25.43;61.14;96090.34;619439;229;67126;-68
2021/12/02 11:20:43;;;;;;;;;;;;;;;25.42;62.89;96083.37;619552;229;66909;-66
2021/12/02 11:23:18;;;;;;;;;;;;;;;25.43;62.93;96089.56;619601;229;65025;-67
2021/12/02 11:26:03;;;;;;;;;;;;;;;25.41;62.70;96081.80;619552;229;67204;-66
2021/12/02 11:28:32;;;;;;;;;;;;;;;25.38;58.00;96079.77;619550;229;66920;-66
2021/12/02 11:31:01;;;;;;;;;;;;;;;25.44;58.98;96069.61;619546;229;63016;-68
2021/12/02 11:33:33;;;;;;;;;;;;;;;25.46;56.53;96062.80;619032;229;64897;-67
2021/12/02 11:36:00;;;;;;;;;;;;;;;25.46;58.02;96068.19;613389;229;68328;-66
2021/12/02 11:38:28;;;;;;;;;;;;;;;25.46;57.41;96078.94;619591;229;62766;-66
2021/12/02 11:41:02;;;;;;;;;;;;;;;25.46;54.28;96076.25;619580;229;67340;-67
2021/12/02 11:43:31;;;;;;;;;;;;;;;25.45;59.45;96074.69;619502;229;65549;-67
2021/12/02 11:45:59;;;;;;;;;;;;;;;25.41;55.47;96081.02;619545;229;63046;-67
2021/12/02 11:48:29;;;;;;;;;;;;;;;25.44;55.91;96088.44;619514;229;67234;-67
2021/12/02 11:50:58;;;;;;;;;;;;;;;25.46;55.94;96088.92;612786;229;65456;-68
2021/12/02 11:53:26;;;;;;;;;;;;;;;25.46;55.21;96076.25;617641;229;63794;-62
2021/12/02 11:55:55;;;;;;;;;;;;;;;25.47;56.58;96080.51;617592;229;64961;-62
2021/12/02 11:58:23;;;;;;;;;;;;;;;25.47;55.79;96074.34;617591;229;67209;-64
2021/12/02 12:00:51;;;;;;;;;;;;;;;25.47;53.74;96075.13;617621;229;65088;-60
2021/12/02 12:03:29;;;;;;;;;;;;;;;25.47;54.56;96069.75;617520;229;66988;-60
2021/12/02 12:05:58;;;;;;;;;;;;;;;25.46;53.41;96067.40;617470;229;66997;-60
2021/12/02 12:08:36;;;;;;;;;;;;;;;25.46;53.93;96062.02;617451;229;65055;-60
2021/12/02 12:11:22;;;;;;;;;;;;;;;25.46;54.75;96062.02;617600;229;64253;-61
2021/12/02 12:13:52;;;;;;;;;;;;;;;25.45;53.45;96072.00;617507;229;65809;-60
2021/12/02 12:16:21;;;;;;;;;;;;;;;25.44;53.96;96059.64;617547;229;65113;-60
2021/12/02 12:18:49;;;;;;;;;;;;;;;25.44;54.27;96059.64;617592;229;65405;-61
2021/12/02 12:21:16;;;;;;;;;;;;;;;25.46;55.21;96062.02;617663;229;65041;-60
2021/12/02 12:23:51;;;;;;;;;;;;;;;25.46;55.28;96060.11;617398;229;62561;-60
2021/12/02 12:26:22;;;;;;;;;;;;;;;25.45;54.10;96050.48;617615;229;47935;-60
2021/12/02 12:28:51;;;;;;;;;;;;;;;25.46;52.92;96052.05;617624;229;66978;-61
2021/12/02 12:31:20;;;;;;;;;;;;;;;25.46;54.60;96052.05;615325;229;64849;-64
2021/12/02 12:33:48;;;;;;;;;;;;;;;25.46;55.00;96046.66;617638;229;67106;-66
2021/12/02 12:36:37;;;;;;;;;;;;;;;25.47;54.80;96048.23;617679;229;50709;-63
2021/12/02 12:39:18;;;;;;;;;;;;;;;25.44;55.28;96046.19;617555;229;64928;-61
2021/12/02 12:42:06;;;;;;;;;;;;;;;25.46;54.85;96045.87;617550;229;64799;-60
2021/12/02 12:44:48;;;;;;;;;;;;;;;25.47;54.13;96047.45;617606;229;67064;-67
2021/12/02 12:47:16;;;;;;;;;;;;;;;25.38;57.81;96036.73;617569;229;65219;-67
2021/12/02 12:49:47;;;;;;;;;;;;;;;25.30;61.74;96034.86;617508;229;67249;-67
2021/12/02 12:52:17;;;;;;;;;;;;;;;25.24;61.09;96036.16;619199;229;67090;-64
2021/12/02 12:55:03;;;;;;;;;;;;;;;25.23;63.03;96026.50;619606;229;62978;-64
2021/12/02 12:57:30;;;;;;;;;;;;;;;25.24;58.81;96028.09;619589;229;67384;-60
2021/12/02 12:59:58;;;;;;;;;;;;;;;25.18;61.16;96024.80;619569;229;66723;-59
2021/12/02 13:02:27;;;;;;;;;;;;;;;25.21;62.41;96024.14;619561;229;65171;-60
2021/12/02 13:04:58;;;;;;;;;;;;;;;25.25;61.40;96021.59;619524;229;46831;-63
2021/12/02 13:07:25;;;;;;;;;;;;;;;25.23;60.00;96018.43;619524;229;67357;-64
2021/12/02 13:10:11;;;;;;;;;;;;;;;25.26;62.11;96020.47;619635;229;65234;-64